Time;durP1;ratioP1;P1;durP2;ratioP2;P2;SDS_P1;SDS_P2;PMS_P1;PMS_P2;Temp;Humidity;BMP_temperature;BMP_pressure;BME280_temperature;BME280_humidity;BME280_pressure;Samples;Min_cycle;Max_cycle;Signal;HPM_P1;HPM_P2
2022/02/07 00:01:18;;;;;;;5.13;1.80;;;16.00;99.90;;;;;;4181002;28;20212;-76
2022/02/07 00:03:32;;;;;;;5.03;1.38;;;16.00;99.90;;;;;;4177793;28;20214;-76
2022/02/07 00:05:36;;;;;;;5.60;1.63;;;16.00;99.90;;;;;;4184040;28;20253;-76
2022/02/07 00:07:38;;;;;;;5.22;1.55;;;16.00;99.90;;;;;;4198322;28;20219;-76
2022/02/07 00:09:41;;;;;;;5.65;1.70;;;16.00;99.90;;;;;;4198760;28;20672;-76
2022/02/07 00:11:43;;;;;;;5.23;1.53;;;16.00;99.90;;;;;;4191545;28;20572;-77
2022/02/07 00:13:46;;;;;;;4.47;1.80;;;16.00;99.90;;;;;;4181571;28;20208;-76
2022/02/07 00:15:48;;;;;;;4.77;1.80;;;16.00;99.90;;;;;;4181814;28;20290;-76
2022/02/07 00:17:51;;;;;;;5.00;1.58;;;16.00;99.90;;;;;;4180630;28;20228;-76
2022/02/07 00:19:57;;;;;;;5.30;1.63;;;16.00;99.90;;;;;;4182014;28;20621;-76
2022/02/07 00:22:00;;;;;;;7.22;1.55;;;16.00;99.90;;;;;;4181485;28;20298;-76
2022/02/07 00:24:02;;;;;;;6.63;1.52;;;15.90;99.90;;;;;;4181701;28;20235;-76
2022/02/07 00:26:05;;;;;;;5.47;1.63;;;15.90;99.90;;;;;;4181596;28;20253;-76
2022/02/07 00:28:07;;;;;;;5.77;1.73;;;15.90;99.90;;;;;;4181287;28;20223;-76
2022/02/07 00:30:13;;;;;;;4.40;1.73;;;15.90;99.90;;;;;;4181417;28;20250;-76
2022/02/07 00:32:16;;;;;;;5.43;1.85;;;15.90;99.90;;;;;;4181495;28;20282;-77
2022/02/07 00:34:18;;;;;;;4.38;1.58;;;15.90;99.90;;;;;;4181940;28;20259;-76
2022/02/07 00:36:22;;;;;;;6.25;1.77;;;15.90;99.90;;;;;;4181521;28;20240;-76
2022/02/07 00:38:25;;;;;;;5.23;1.83;;;15.90;99.90;;;;;;4181527;28;20220;-76
2022/02/07 00:40:48;;;;;;;5.80;1.98;;;15.90;99.90;;;;;;4181007;28;20267;-76
2022/02/07 00:42:54;;;;;;;6.03;1.90;;;15.90;99.90;;;;;;4181189;28;20212;-77
2022/02/07 00:45:03;;;;;;;5.47;1.70;;;15.90;99.90;;;;;;4181408;28;20618;-76
2022/02/07 00:47:09;;;;;;;5.03;1.87;;;15.90;99.90;;;;;;4181180;28;20270;-76
2022/02/07 00:49:11;;;;;;;4.47;1.50;;;15.90;99.90;;;;;;4180701;28;20224;-77
2022/02/07 00:51:13;;;;;;;5.43;1.73;;;15.90;99.90;;;;;;4181512;28;20215;-76
2022/02/07 00:53:17;;;;;;;6.33;1.90;;;15.90;99.90;;;;;;4180612;28;20211;-76
2022/02/07 00:55:20;;;;;;;7.53;2.00;;;15.90;99.90;;;;;;4181204;28;20220;-77
2022/02/07 00:57:22;;;;;;;4.93;1.80;;;15.90;99.90;;;;;;4181038;28;20239;-76
2022/02/07 00:59:25;;;;;;;5.30;1.87;;;15.80;99.90;;;;;;4181443;28;20270;-76
2022/02/07 01:01:28;;;;;;;5.47;1.50;;;15.80;99.90;;;;;;4181253;28;20262;-76
2022/02/07 01:03:30;;;;;;;5.40;1.70;;;15.80;99.90;;;;;;4181045;28;20215;-76
2022/02/07 01:05:32;;;;;;;6.17;1.73;;;15.90;99.90;;;;;;4163350;28;20220;-76
2022/02/07 01:07:35;;;;;;;5.33;1.50;;;15.80;99.90;;;;;;4179607;28;20212;-76
2022/02/07 01:09:43;;;;;;;4.82;1.83;;;15.80;99.90;;;;;;4180084;28;20223;-76
2022/02/07 01:14:14;;;;;;;7.27;2.00;;;15.80;99.90;;;;;;4173857;28;20256;-77
2022/02/07 01:16:36;;;;;;;6.93;2.10;;;15.80;99.90;;;;;;4180775;28;20294;-77
2022/02/07 01:18:58;;;;;;;5.73;1.97;;;15.90;99.90;;;;;;4180765;28;20215;-76
2022/02/07 01:49:44;;;;;;;5.80;1.77;;;15.70;99.90;;;;;;4170776;28;20219;-76
2022/02/07 01:52:03;;;;;;;6.83;1.70;;;15.70;99.90;;;;;;4189699;28;20364;-76
2022/02/07 01:54:22;;;;;;;7.18;1.90;;;15.70;99.90;;;;;;4203910;28;20210;-76
2022/02/07 01:56:29;;;;;;;5.30;1.77;;;15.70;99.90;;;;;;4201796;28;20281;-76
2022/02/07 01:58:32;;;;;;;6.37;1.80;;;15.70;99.90;;;;;;4196729;28;20672;-76
2022/02/07 02:00:37;;;;;;;4.17;1.67;;;15.70;99.90;;;;;;4195859;28;20626;-76
2022/02/07 02:02:39;;;;;;;5.15;1.60;;;15.70;99.90;;;;;;4196534;28;20223;-76
2022/02/07 02:04:42;;;;;;;4.17;1.63;;;15.70;99.90;;;;;;4196322;28;20249;-75
2022/02/07 02:06:45;;;;;;;4.00;1.80;;;15.70;99.90;;;;;;4196694;28;20722;-76
2022/02/07 02:08:48;;;;;;;5.88;2.00;;;15.70;99.90;;;;;;4180237;28;20216;-76
2022/02/07 02:10:55;;;;;;;4.00;1.83;;;15.70;99.90;;;;;;4189623;28;20228;-76
2022/02/07 02:13:04;;;;;;;4.97;1.95;;;15.70;99.90;;;;;;4196807;28;20301;-76
2022/02/07 02:15:22;;;;;;;5.63;1.90;;;15.70;99.90;;;;;;4196607;28;20687;-76
2022/02/07 02:38:46;;;;;;;4.45;1.60;;;15.70;99.90;;;;;;4180387;28;20547;-76
2022/02/07 02:45:33;;;;;;;3.92;1.55;;;15.60;99.90;;;;;;4179986;28;20203;-76
2022/02/07 02:47:35;;;;;;;5.23;1.67;;;15.60;99.90;;;;;;4179926;28;20219;-76
2022/02/07 02:49:46;;;;;;;4.07;1.60;;;15.60;99.90;;;;;;4180331;28;20711;-76
2022/02/07 02:51:49;;;;;;;6.00;1.73;;;15.60;99.90;;;;;;4179918;28;20997;-76
2022/02/07 02:53:53;;;;;;;4.43;1.65;;;15.60;99.90;;;;;;4175829;28;20664;-75
2022/02/07 02:55:55;;;;;;;4.55;1.65;;;15.60;99.90;;;;;;4179939;28;20742;-75
2022/02/07 02:57:58;;;;;;;5.03;1.57;;;15.60;99.90;;;;;;4179683;28;20240;-76
2022/02/07 03:00:00;;;;;;;5.20;1.77;;;15.60;99.90;;;;;;4180382;28;20634;-76
2022/02/07 03:02:03;;;;;;;5.43;1.77;;;15.60;99.90;;;;;;4180216;28;20216;-75
2022/02/07 03:04:05;;;;;;;4.28;2.00;;;15.60;99.90;;;;;;4175263;28;20212;-76
2022/02/07 03:06:08;;;;;;;5.30;2.00;;;15.70;99.90;;;;;;4163510;28;20216;-75
2022/02/07 03:08:10;;;;;;;4.82;1.73;;;15.60;99.90;;;;;;4163227;28;20217;-75
2022/02/07 03:10:23;;;;;;;5.18;1.65;;;15.60;99.90;;;;;;4167773;28;20212;-75
2022/02/07 03:12:26;;;;;;;4.55;1.70;;;15.60;99.90;;;;;;4164174;28;20216;-75
2022/02/07 03:14:37;;;;;;;5.47;1.90;;;15.60;99.90;;;;;;4172806;28;20266;-75
2022/02/07 03:16:38;;;;;;;6.72;1.90;;;15.60;99.90;;;;;;4180034;28;20212;-76
2022/02/07 03:18:41;;;;;;;4.15;1.67;;;15.60;99.90;;;;;;4180048;28;20583;-75
2022/02/07 03:20:43;;;;;;;4.35;1.63;;;15.60;99.90;;;;;;4179431;28;20614;-75
2022/02/07 03:22:45;;;;;;;5.22;1.75;;;15.60;99.90;;;;;;4179539;28;20216;-76
2022/02/07 03:24:48;;;;;;;5.05;1.73;;;15.60;99.90;;;;;;4189276;28;20231;-75
2022/02/07 03:26:52;;;;;;;5.77;1.73;;;15.60;99.90;;;;;;4196855;28;20211;-75
2022/02/07 03:28:54;;;;;;;4.93;1.77;;;15.60;99.90;;;;;;4197976;28;20229;-75
2022/02/07 03:30:57;;;;;;;5.20;1.50;;;15.60;99.90;;;;;;4198162;28;20261;-75
2022/02/07 03:32:59;;;;;;;5.93;1.83;;;15.70;99.90;;;;;;4199481;28;20285;-75
2022/02/07 03:35:02;;;;;;;6.72;2.00;;;15.70;99.90;;;;;;4199193;28;20249;-75
2022/02/07 03:37:05;;;;;;;5.03;1.73;;;15.60;99.90;;;;;;4199321;28;20285;-75
2022/02/07 03:39:07;;;;;;;3.67;1.70;;;15.60;99.90;;;;;;4196327;28;20219;-76
2022/02/07 03:41:10;;;;;;;4.63;1.67;;;15.60;99.90;;;;;;4193673;28;20215;-75
2022/02/07 03:43:13;;;;;;;5.87;1.77;;;15.60;99.90;;;;;;4199460;28;20204;-75
2022/02/07 03:45:16;;;;;;;5.88;1.83;;;15.60;99.90;;;;;;4196226;28;20227;-76
2022/02/07 03:47:18;;;;;;;4.85;1.17;;;15.60;99.90;;;;;;4197935;28;20599;-75
2022/02/07 03:49:21;;;;;;;4.63;1.50;;;15.60;99.90;;;;;;4199308;28;20674;-75
2022/02/07 03:51:23;;;;;;;4.63;1.70;;;15.60;99.90;;;;;;4197524;28;20215;-75
2022/02/07 03:53:25;;;;;;;4.43;1.67;;;15.60;99.90;;;;;;4199849;28;20256;-75
2022/02/07 03:55:28;;;;;;;4.43;1.30;;;15.60;99.90;;;;;;4199388;28;20215;-75
2022/02/07 03:57:30;;;;;;;4.97;1.45;;;15.60;99.90;;;;;;4198032;28;20227;-75
2022/02/07 03:59:34;;;;;;;4.23;1.87;;;15.60;99.90;;;;;;4198660;28;21721;-75
2022/02/07 04:01:36;;;;;;;4.77;1.60;;;15.60;99.90;;;;;;4196895;28;20257;-75
2022/02/07 04:03:38;;;;;;;4.57;1.70;;;15.60;99.90;;;;;;4196826;28;20237;-75
2022/02/07 04:05:46;;;;;;;5.15;1.65;;;15.50;99.90;;;;;;4196608;28;20211;-75
2022/02/07 04:07:49;;;;;;;5.53;2.05;;;15.60;99.90;;;;;;4197250;28;20257;-75
2022/02/07 04:09:55;;;;;;;5.50;1.87;;;15.50;99.90;;;;;;4197523;28;20909;-75
2022/02/07 04:12:03;;;;;;;4.83;1.90;;;15.50;99.90;;;;;;4197067;28;20215;-75
2022/02/07 04:14:05;;;;;;;3.40;1.47;;;15.50;99.90;;;;;;4197506;28;20215;-75
2022/02/07 04:16:09;;;;;;;5.25;1.55;;;15.60;99.90;;;;;;4197916;28;20215;-75
2022/02/07 04:18:14;;;;;;;4.13;1.60;;;15.60;99.90;;;;;;4197420;28;20703;-75
2022/02/07 04:20:18;;;;;;;3.77;1.43;;;15.50;99.90;;;;;;4197645;28;20265;-75
2022/02/07 04:22:20;;;;;;;4.75;1.73;;;15.50;99.90;;;;;;4197270;28;20722;-74
2022/02/07 04:24:23;;;;;;;3.55;1.70;;;15.50;99.90;;;;;;4195658;28;20243;-75
2022/02/07 04:26:25;;;;;;;4.40;1.80;;;15.50;99.90;;;;;;4196784;28;20797;-75
2022/02/07 04:28:28;;;;;;;6.57;1.73;;;15.50;99.80;;;;;;4196959;28;20268;-75
2022/02/07 04:30:30;;;;;;;4.60;1.50;;;15.50;99.90;;;;;;4196938;28;20207;-75
2022/02/07 04:32:34;;;;;;;4.53;1.70;;;15.50;99.90;;;;;;4198005;28;20717;-75
2022/02/07 04:34:36;;;;;;;5.75;1.88;;;15.50;99.80;;;;;;4196132;28;20273;-75
2022/02/07 04:36:40;;;;;;;6.47;1.77;;;15.50;99.80;;;;;;4197852;28;20269;-75
2022/02/07 04:38:43;;;;;;;5.05;1.48;;;15.50;99.80;;;;;;4197274;28;20239;-75
2022/02/07 04:40:45;;;;;;;4.70;1.37;;;15.50;99.70;;;;;;4196672;28;20211;-75
2022/02/07 04:42:47;;;;;;;5.53;1.93;;;15.50;99.80;;;;;;4195777;28;20262;-75
2022/02/07 04:45:04;;;;;;;4.60;1.50;;;15.50;99.80;;;;;;4195049;28;20284;-75
2022/02/07 04:47:16;;;;;;;4.23;1.70;;;15.50;99.80;;;;;;4195201;28;20539;-75
2022/02/07 04:52:01;;;;;;;4.85;1.52;;;15.50;99.80;;;;;;4194699;28;20657;-75
2022/02/07 04:54:16;;;;;;;4.40;1.63;;;15.50;99.80;;;;;;4195885;28;20641;-76
2022/02/07 04:57:01;;;;;;;3.23;1.50;;;15.50;99.80;;;;;;4196222;28;20218;-75
2022/02/07 04:58:55;;;;;;;4.60;1.63;;;15.50;99.80;;;;;;4195080;28;20227;-75
2022/02/07 05:01:09;;;;;;;5.13;1.80;;;15.50;99.70;;;;;;4197223;28;20215;-75
2022/02/07 05:03:16;;;;;;;5.77;1.60;;;15.50;99.80;;;;;;4196424;28;20218;-75
2022/02/07 05:13:36;;;;;;;5.13;1.50;;;15.50;99.70;;;;;;4196385;28;20956;-75
2022/02/07 05:14:48;;;;;;;5.50;1.70;;;15.40;99.70;;;;;;4196628;28;20608;-75
2022/02/07 05:16:53;;;;;;;5.67;1.80;;;15.50;99.70;;;;;;4195397;28;20658;-75
2022/02/07 05:18:57;;;;;;;4.70;1.80;;;15.40;99.70;;;;;;4196599;28;20280;-75
2022/02/07 05:21:01;;;;;;;5.67;1.70;;;15.40;99.70;;;;;;4196703;28;20211;-76
2022/02/07 05:23:03;;;;;;;4.67;1.63;;;15.50;99.80;;;;;;4197557;28;20227;-75
2022/02/07 05:25:07;;;;;;;4.22;1.70;;;15.40;99.70;;;;;;4197336;28;20241;-75
2022/02/07 05:27:09;;;;;;;6.30;1.63;;;15.40;99.70;;;;;;4198033;28;20222;-75
2022/02/07 05:29:12;;;;;;;4.95;1.90;;;15.40;99.60;;;;;;4197404;28;20237;-75
2022/02/07 05:31:14;;;;;;;3.88;1.60;;;15.40;99.60;;;;;;4197094;28;20218;-76
2022/02/07 05:33:16;;;;;;;4.10;1.43;;;15.40;99.60;;;;;;4197585;28;20268;-76
2022/02/07 05:35:19;;;;;;;5.50;1.53;;;15.40;99.60;;;;;;4185775;28;20269;-76
2022/02/07 05:37:23;;;;;;;4.67;1.17;;;15.40;99.60;;;;;;4197435;28;20277;-76
2022/02/07 05:39:32;;;;;;;3.13;1.47;;;15.40;99.60;;;;;;4196846;28;20242;-76
2022/02/07 05:41:34;;;;;;;5.47;1.43;;;15.40;99.60;;;;;;4197114;28;20218;-76
2022/02/07 05:43:39;;;;;;;4.07;1.30;;;15.40;99.50;;;;;;4197085;28;20219;-76
2022/02/07 05:45:41;;;;;;;5.60;1.77;;;15.40;99.50;;;;;;4183982;28;20326;-76
2022/02/07 05:47:43;;;;;;;4.37;1.30;;;15.40;99.50;;;;;;4180086;28;20216;-76
2022/02/07 05:49:45;;;;;;;4.63;1.63;;;15.40;99.50;;;;;;4183917;28;20664;-76
2022/02/07 05:51:48;;;;;;;4.07;1.50;;;15.30;99.50;;;;;;4196291;28;20272;-76
2022/02/07 05:53:51;;;;;;;3.70;1.60;;;15.40;99.60;;;;;;4195293;28;20563;-76
2022/02/07 05:55:54;;;;;;;4.07;1.70;;;15.10;99.90;;;;;;4196720;28;20230;-76
2022/02/07 05:57:56;;;;;;;5.03;1.47;;;14.80;99.90;;;;;;4196896;28;20219;-76
2022/02/07 05:59:58;;;;;;;3.93;1.60;;;14.70;99.90;;;;;;4196750;28;20611;-76
2022/02/07 06:02:01;;;;;;;3.50;1.40;;;14.80;99.90;;;;;;4196753;28;20260;-77
2022/02/07 06:04:03;;;;;;;3.47;1.50;;;14.90;99.90;;;;;;4196698;28;20275;-76
2022/02/07 06:06:06;;;;;;;4.33;1.50;;;15.10;99.90;;;;;;4196777;28;20223;-77
2022/02/07 06:08:08;;;;;;;7.40;1.37;;;15.20;99.90;;;;;;4197000;28;20219;-77
2022/02/07 06:10:12;;;;;;;4.20;1.50;;;15.40;99.80;;;;;;4195448;28;20268;-77
2022/02/07 06:12:14;;;;;;;3.53;1.20;;;15.50;99.70;;;;;;4196603;28;20618;-77
2022/02/07 06:14:16;;;;;;;3.88;1.30;;;15.60;99.70;;;;;;4196508;28;20256;-77
2022/02/07 06:16:19;;;;;;;4.17;1.50;;;15.60;99.40;;;;;;4195844;28;20629;-76
2022/02/07 06:18:21;;;;;;;4.28;1.63;;;15.70;99.50;;;;;;4196114;28;20632;-77
2022/02/07 06:20:24;;;;;;;4.00;1.40;;;15.70;99.50;;;;;;4197042;28;20253;-76
2022/02/07 06:22:27;;;;;;;7.63;2.10;;;15.70;99.50;;;;;;4196592;28;20214;-76
2022/02/07 06:24:29;;;;;;;3.88;1.90;;;15.70;99.50;;;;;;4196078;28;20234;-77
2022/02/07 06:26:33;;;;;;;4.70;1.85;;;15.80;99.50;;;;;;4195481;28;20211;-77
2022/02/07 06:28:36;;;;;;;4.93;1.60;;;15.80;99.60;;;;;;4196249;28;20663;-77
2022/02/07 06:30:38;;;;;;;4.40;1.63;;;15.80;99.50;;;;;;4196413;28;20261;-76
2022/02/07 06:32:41;;;;;;;7.00;1.60;;;15.80;99.40;;;;;;4187121;28;20215;-77
2022/02/07 06:34:43;;;;;;;4.10;1.70;;;15.90;99.50;;;;;;4194477;28;20847;-76
2022/02/07 06:36:46;;;;;;;5.13;1.67;;;15.90;99.60;;;;;;4186251;28;20215;-76
2022/02/07 06:38:48;;;;;;;4.27;1.80;;;15.90;99.80;;;;;;4179686;28;20376;-75
2022/02/07 06:40:51;;;;;;;3.00;1.65;;;15.90;99.60;;;;;;4179991;28;20220;-75
2022/02/07 06:42:55;;;;;;;3.80;2.00;;;15.90;99.50;;;;;;4180556;28;20219;-76
2022/02/07 06:44:57;;;;;;;5.03;1.40;;;15.90;99.50;;;;;;4193263;28;20215;-76
2022/02/07 06:46:59;;;;;;;4.65;1.50;;;15.90;99.50;;;;;;4197291;28;20281;-75
2022/02/07 06:49:01;;;;;;;4.38;1.60;;;16.00;99.60;;;;;;4196905;28;20256;-75
2022/02/07 06:51:04;;;;;;;5.78;1.33;;;16.00;99.50;;;;;;4196962;28;20272;-75
2022/02/07 06:53:06;;;;;;;5.10;1.65;;;16.00;99.40;;;;;;4196961;28;20215;-75
2022/02/07 06:55:09;;;;;;;4.85;1.50;;;16.00;99.60;;;;;;4196425;28;20272;-75
2022/02/07 06:57:13;;;;;;;4.97;2.13;;;16.10;99.60;;;;;;4196733;28;20264;-75
2022/02/07 06:59:19;;;;;;;4.38;1.90;;;16.00;99.40;;;;;;4196347;28;20288;-75
2022/02/07 07:01:21;;;;;;;3.80;1.85;;;16.10;99.90;;;;;;4195728;28;20941;-75
2022/02/07 07:03:24;;;;;;;3.60;1.65;;;16.10;99.70;;;;;;4200042;28;20257;-75
2022/02/07 07:05:27;;;;;;;5.03;1.60;;;16.10;99.70;;;;;;4199866;28;20288;-75
2022/02/07 07:07:29;;;;;;;5.20;1.77;;;16.10;99.50;;;;;;4200118;28;20223;-75
2022/02/07 07:09:33;;;;;;;4.07;1.83;;;16.10;99.40;;;;;;4200141;28;20215;-76
2022/02/07 07:11:35;;;;;;;4.65;1.60;;;16.10;99.50;;;;;;4200160;28;20265;-75
2022/02/07 07:13:42;;;;;;;6.93;2.15;;;16.10;99.70;;;;;;4199948;28;20265;-75
2022/02/07 07:15:52;;;;;;;4.30;2.08;;;16.10;99.60;;;;;;4200144;28;20745;-75
2022/02/07 07:17:54;;;;;;;6.43;2.20;;;16.10;99.50;;;;;;4186283;28;20210;-76
2022/02/07 07:20:01;;;;;;;3.55;1.67;;;16.20;99.70;;;;;;4200053;28;20226;-75
2022/02/07 07:22:05;;;;;;;5.13;1.88;;;16.20;99.60;;;;;;4199455;28;20219;-76
2022/02/07 07:24:07;;;;;;;5.88;1.90;;;16.20;99.60;;;;;;4199862;28;20288;-76
2022/02/07 07:26:10;;;;;;;2.47;1.58;;;16.20;99.70;;;;;;4200010;28;20219;-75
2022/02/07 07:28:15;;;;;;;4.35;1.52;;;16.20;99.60;;;;;;4199855;28;20268;-76
2022/02/07 07:30:17;;;;;;;7.00;2.00;;;16.10;99.60;;;;;;4197323;28;20211;-76
2022/02/07 07:32:25;;;;;;;3.78;1.88;;;16.20;99.70;;;;;;4191368;28;20604;-75
2022/02/07 07:34:27;;;;;;;3.60;1.55;;;16.20;99.70;;;;;;4196148;28;20209;-75
2022/02/07 07:36:30;;;;;;;5.47;1.80;;;16.20;99.80;;;;;;4195574;28;20268;-75
2022/02/07 07:38:32;;;;;;;4.32;1.83;;;16.20;99.80;;;;;;4197728;28;20219;-75
2022/02/07 07:40:35;;;;;;;5.13;1.73;;;16.20;99.50;;;;;;4197511;28;20235;-75
2022/02/07 07:42:38;;;;;;;3.47;1.50;;;16.20;99.70;;;;;;4197289;28;20219;-75
2022/02/07 07:44:40;;;;;;;5.90;1.90;;;16.30;99.70;;;;;;4198619;28;20211;-75
2022/02/07 07:46:42;;;;;;;3.45;1.70;;;16.20;99.90;;;;;;4198524;28;20253;-75
2022/02/07 07:48:55;;;;;;;5.50;2.08;;;16.20;99.70;;;;;;4196305;28;20216;-75
2022/02/07 07:51:05;;;;;;;5.57;1.85;;;16.20;99.70;;;;;;4198062;28;20215;-75
2022/02/07 07:53:16;;;;;;;6.50;2.08;;;16.30;99.70;;;;;;4195973;28;20211;-76
2022/02/07 07:55:29;;;;;;;4.05;1.85;;;16.30;99.60;;;;;;4198352;28;20215;-78
2022/02/07 08:02:14;;;;;;;5.75;1.83;;;16.10;98.50;;;;;;4197069;28;20200;-76
2022/02/07 08:04:20;;;;;;;5.13;1.98;;;16.20;98.30;;;;;;4192928;28;20220;-74
2022/02/07 08:06:26;;;;;;;5.63;1.75;;;16.30;98.60;;;;;;4182600;28;20219;-76
2022/02/07 08:08:36;;;;;;;5.93;1.90;;;16.50;98.40;;;;;;4200174;28;20261;-77
2022/02/07 08:10:48;;;;;;;6.38;1.70;;;16.60;98.40;;;;;;4186802;28;20210;-75
2022/02/07 08:12:51;;;;;;;6.35;1.92;;;16.80;98.10;;;;;;4187844;28;20223;-76
2022/02/07 08:14:53;;;;;;;3.88;1.70;;;17.00;98.20;;;;;;4194447;28;20207;-76
2022/02/07 08:16:56;;;;;;;4.78;1.80;;;17.10;98.50;;;;;;4191147;28;20227;-76
2022/02/07 08:19:05;;;;;;;5.07;1.83;;;17.10;98.50;;;;;;4193174;28;20219;-75
2022/02/07 08:21:09;;;;;;;4.03;1.80;;;17.10;97.70;;;;;;4192459;28;20727;-76
2022/02/07 08:23:11;;;;;;;5.15;2.03;;;17.10;96.40;;;;;;4188874;28;20258;-75
2022/02/07 08:25:13;;;;;;;7.82;2.35;;;17.10;96.80;;;;;;4168547;28;20231;-79
2022/02/07 08:27:16;;;;;;;3.63;1.92;;;17.10;96.70;;;;;;4171191;28;20274;-76
2022/02/07 08:29:19;;;;;;;5.90;1.83;;;17.30;97.40;;;;;;4172582;28;20212;-74
2022/02/07 08:31:22;;;;;;;8.43;1.85;;;17.40;97.70;;;;;;4175534;28;20274;-76
2022/02/07 08:33:25;;;;;;;7.20;2.33;;;17.40;97.70;;;;;;4173803;28;20279;-76
2022/02/07 08:35:28;;;;;;;5.60;1.67;;;17.50;97.60;;;;;;4177053;28;20602;-74
2022/02/07 08:37:31;;;;;;;7.88;2.10;;;17.50;98.20;;;;;;4175892;28;20208;-75
2022/02/07 08:39:34;;;;;;;9.23;2.25;;;17.60;98.20;;;;;;4172442;28;20207;-74
2022/02/07 08:41:36;;;;;;;10.77;2.03;;;17.50;97.90;;;;;;4165215;28;20224;-75
2022/02/07 08:43:39;;;;;;;8.90;2.03;;;17.50;98.00;;;;;;4174273;28;20715;-74
2022/02/07 08:45:42;;;;;;;7.57;2.20;;;17.70;98.20;;;;;;4175718;28;20261;-74
2022/02/07 08:47:44;;;;;;;12.25;2.15;;;17.70;97.90;;;;;;4174251;28;20212;-75
2022/02/07 08:49:46;;;;;;;10.20;2.22;;;17.80;98.30;;;;;;4175760;28;20211;-78
2022/02/07 08:51:50;;;;;;;7.68;2.10;;;17.90;98.60;;;;;;4167632;28;20244;-74
2022/02/07 08:53:54;;;;;;;9.88;2.40;;;17.90;98.80;;;;;;4163951;28;20767;-72
2022/02/07 08:55:56;;;;;;;16.17;2.70;;;17.80;99.20;;;;;;4173751;28;20220;-73
2022/02/07 08:58:03;;;;;;;19.35;3.60;;;17.80;99.90;;;;;;4169754;28;20215;-72
2022/02/07 09:00:15;;;;;;;13.68;2.60;;;18.00;99.90;;;;;;4174767;28;20247;-71
2022/02/07 09:02:25;;;;;;;17.15;2.35;;;18.00;99.60;;;;;;4172681;28;21039;-72
2022/02/07 09:04:43;;;;;;;14.38;3.22;;;18.00;99.20;;;;;;4171662;28;20869;-74
2022/02/07 09:07:00;;;;;;;6.05;2.72;;;17.60;97.80;;;;;;4172531;28;20613;-72
2022/02/07 09:09:10;;;;;;;13.43;2.97;;;17.60;98.50;;;;;;4172675;28;20340;-72
2022/02/07 09:11:15;;;;;;;16.13;3.60;;;17.80;98.60;;;;;;4170655;28;20204;-74
2022/02/07 09:13:18;;;;;;;11.30;2.97;;;17.80;98.60;;;;;;4172522;28;20220;-72
2022/02/07 09:15:33;;;;;;;22.38;3.33;;;17.90;99.10;;;;;;4168340;28;20858;-73
2022/02/07 09:17:35;;;;;;;15.50;2.53;;;18.00;98.90;;;;;;4173901;28;20258;-72
2022/02/07 09:19:38;;;;;;;14.02;2.88;;;18.10;98.90;;;;;;4171368;28;20220;-73
2022/02/07 09:21:41;;;;;;;10.52;2.80;;;18.10;99.10;;;;;;4171981;28;20265;-75
2022/02/07 09:23:45;;;;;;;20.08;3.72;;;18.20;99.30;;;;;;4166878;28;20219;-74
2022/02/07 09:25:48;;;;;;;18.85;3.53;;;18.40;99.60;;;;;;4153675;28;20220;-75
2022/02/07 09:27:51;;;;;;;15.18;3.13;;;18.40;99.90;;;;;;4168239;28;20223;-75
2022/02/07 09:29:53;;;;;;;14.80;3.20;;;18.30;99.90;;;;;;4171344;28;20285;-76
2022/02/07 09:31:57;;;;;;;16.85;3.33;;;18.40;99.90;;;;;;4177297;28;20290;-73
2022/02/07 09:34:00;;;;;;;10.80;3.13;;;18.40;99.90;;;;;;4170072;28;21158;-74
2022/02/07 09:36:03;;;;;;;14.52;2.78;;;18.40;99.90;;;;;;4174731;28;20223;-75
2022/02/07 09:38:05;;;;;;;8.13;3.00;;;18.40;99.90;;;;;;4172169;28;20612;-75
2022/02/07 09:40:09;;;;;;;16.70;3.05;;;18.60;99.90;;;;;;4173306;28;20563;-75
2022/02/07 09:42:13;;;;;;;12.25;2.95;;;18.60;99.90;;;;;;4170609;28;20212;-73
2022/02/07 09:44:16;;;;;;;12.13;2.63;;;18.70;99.90;;;;;;4171457;28;20208;-76
2022/02/07 09:46:33;;;;;;;10.07;2.47;;;18.80;99.90;;;;;;4172567;28;20267;-76
2022/02/07 09:48:38;;;;;;;12.45;3.33;;;18.90;99.90;;;;;;4176562;28;20212;-81
2022/02/07 09:50:41;;;;;;;7.57;2.42;;;19.00;99.90;;;;;;4177107;28;20259;-83
2022/02/07 09:52:44;;;;;;;8.27;2.40;;;19.00;99.90;;;;;;4177353;28;20261;-81
2022/02/07 09:54:46;;;;;;;10.75;2.72;;;19.00;99.90;;;;;;4180032;28;20208;-77
2022/02/07 09:56:51;;;;;;;10.90;2.60;;;18.90;99.90;;;;;;4174602;28;20661;-76
2022/02/07 09:58:55;;;;;;;8.90;2.58;;;18.90;99.90;;;;;;4174904;28;20212;-79
2022/02/07 10:01:00;;;;;;;14.63;3.13;;;18.80;99.90;;;;;;4170241;28;20305;-81
2022/02/07 10:03:10;;;;;;;10.75;2.75;;;18.80;99.90;;;;;;4167766;28;20220;-79
2022/02/07 10:05:19;;;;;;;10.90;2.40;;;18.80;99.90;;;;;;4169649;28;20269;-83
2022/02/07 10:07:30;;;;;;;8.45;2.42;;;18.80;99.90;;;;;;4178288;28;20215;-87
2022/02/07 10:09:46;;;;;;;10.55;2.55;;;18.80;99.90;;;;;;4177628;28;20274;-83
2022/02/07 10:14:17;;;;;;;7.75;2.25;;;18.80;99.90;;;;;;4174872;28;20204;-75
2022/02/07 10:18:55;;;;;;;13.40;2.92;;;18.80;99.90;;;;;;4169334;28;20270;-78
2022/02/07 10:39:47;;;;;;;10.52;2.38;;;18.90;99.90;;;;;;4172539;28;20605;-76
2022/02/07 10:42:32;;;;;;;7.80;2.78;;;18.90;99.90;;;;;;4172910;28;20250;-77
2022/02/07 10:44:43;;;;;;;8.93;2.03;;;18.90;99.90;;;;;;4171308;28;20216;-79
2022/02/07 10:46:55;;;;;;;9.10;2.35;;;19.10;99.90;;;;;;4191509;28;20700;-77
2022/02/07 10:48:57;;;;;;;7.28;2.15;;;19.10;99.90;;;;;;4188413;28;20280;-76
2022/02/07 10:51:12;;;;;;;6.28;2.20;;;19.10;99.90;;;;;;4186204;28;20644;-76
2022/02/07 10:53:23;;;;;;;6.63;2.20;;;19.10;99.90;;;;;;4191278;28;20261;-77
2022/02/07 10:55:27;;;;;;;6.47;2.38;;;19.10;99.90;;;;;;4188044;28;20219;-77
2022/02/07 10:57:30;;;;;;;10.68;2.20;;;19.20;99.90;;;;;;4190807;28;20273;-78
2022/02/07 10:59:32;;;;;;;6.70;2.13;;;19.20;99.90;;;;;;4188192;28;20288;-78
2022/02/07 11:02:01;;;;;;;5.32;2.22;;;19.20;99.90;;;;;;4187035;28;20531;-74
2022/02/07 11:04:10;;;;;;;6.40;2.42;;;19.30;99.90;;;;;;4191619;28;20699;-73
2022/02/07 11:06:16;;;;;;;6.70;2.10;;;19.30;99.90;;;;;;4189301;28;20212;-76
2022/02/07 11:08:24;;;;;;;6.97;2.28;;;19.30;99.90;;;;;;4182733;28;20219;-75
2022/02/07 11:10:36;;;;;;;8.45;2.30;;;19.30;99.90;;;;;;4185417;28;20214;-77
2022/02/07 11:13:07;;;;;;;4.55;1.90;;;19.30;99.90;;;;;;4185377;28;20215;-77
2022/02/07 11:15:20;;;;;;;8.05;2.50;;;19.30;99.90;;;;;;4183540;28;20215;-75
2022/02/07 11:17:49;;;;;;;5.20;2.00;;;19.40;99.90;;;;;;4187646;28;21902;-79
2022/02/07 11:20:01;;;;;;;7.03;2.40;;;19.40;99.90;;;;;;4189745;28;20223;-78
2022/02/07 11:22:15;;;;;;;6.35;2.42;;;19.40;99.90;;;;;;4186780;28;20293;-75
2022/02/07 11:24:29;;;;;;;6.28;2.30;;;19.40;99.90;;;;;;4188476;28;21758;-75
2022/02/07 11:26:39;;;;;;;6.10;2.10;;;19.40;99.90;;;;;;4188464;28;21040;-76
2022/02/07 11:28:44;;;;;;;8.27;2.00;;;19.40;99.90;;;;;;4188161;28;20277;-77
2022/02/07 11:30:49;;;;;;;5.68;1.92;;;19.50;99.90;;;;;;4195946;28;20651;-79
2022/02/07 11:32:57;;;;;;;5.22;1.67;;;19.50;99.90;;;;;;4182810;28;20280;-77
2022/02/07 11:35:06;;;;;;;4.55;1.73;;;19.50;99.90;;;;;;4188116;28;20211;-77
2022/02/07 11:37:26;;;;;;;8.38;2.13;;;19.60;99.90;;;;;;4191263;28;20214;-77
2022/02/07 11:39:41;;;;;;;3.55;1.65;;;19.60;99.90;;;;;;4194376;28;20650;-78
2022/02/07 11:42:08;;;;;;;6.10;1.95;;;19.60;99.90;;;;;;4190709;28;20624;-78
2022/02/07 11:44:11;;;;;;;6.43;2.70;;;19.60;99.90;;;;;;4186211;28;20264;-79
2022/02/07 11:46:14;;;;;;;6.90;2.03;;;19.50;99.90;;;;;;4183246;28;20225;-76
2022/02/07 11:48:19;;;;;;;6.35;2.15;;;19.60;99.90;;;;;;4185634;28;20214;-78
2022/02/07 11:50:23;;;;;;;9.13;2.13;;;19.60;99.90;;;;;;4188951;28;20289;-75
2022/02/07 11:52:29;;;;;;;7.40;2.03;;;19.70;99.90;;;;;;4191006;28;20285;-76
2022/02/07 11:54:34;;;;;;;5.80;2.05;;;19.70;99.90;;;;;;4192614;28;20273;-77
2022/02/07 11:56:43;;;;;;;7.95;1.95;;;19.70;99.90;;;;;;4189097;28;20219;-76
2022/02/07 11:58:52;;;;;;;3.60;1.80;;;19.70;99.90;;;;;;4194610;28;20586;-76
2022/02/07 12:00:58;;;;;;;6.13;2.13;;;19.60;99.90;;;;;;4186916;28;20284;-77
2022/02/07 12:03:06;;;;;;;10.68;2.05;;;19.60;99.90;;;;;;4187921;28;20278;-76
2022/02/07 12:05:10;;;;;;;8.63;2.30;;;19.60;99.90;;;;;;4191305;28;20646;-78
2022/02/07 12:07:30;;;;;;;6.82;2.10;;;19.60;99.90;;;;;;4190342;28;20219;-77
2022/02/07 12:09:33;;;;;;;4.97;1.88;;;19.60;99.90;;;;;;4190348;28;20211;-77
2022/02/07 12:11:45;;;;;;;6.78;2.10;;;19.70;99.90;;;;;;4190676;28;20264;-77
2022/02/07 12:13:47;;;;;;;6.20;1.85;;;19.60;99.90;;;;;;4195072;28;20219;-78
2022/02/07 12:15:54;;;;;;;6.78;2.00;;;19.60;99.90;;;;;;4193943;28;20285;-78
2022/02/07 12:17:57;;;;;;;8.60;2.10;;;19.70;99.90;;;;;;4192768;28;20227;-79
2022/02/07 12:20:06;;;;;;;3.92;1.77;;;19.70;99.90;;;;;;4193415;28;20220;-80
2022/02/07 12:22:17;;;;;;;7.72;2.10;;;19.60;99.90;;;;;;4195664;28;20243;-79
2022/02/07 12:24:21;;;;;;;5.70;1.90;;;19.70;99.90;;;;;;4194349;28;20299;-78
2022/02/07 12:26:24;;;;;;;4.82;1.70;;;19.70;99.90;;;;;;4192686;28;20270;-78
2022/02/07 12:28:32;;;;;;;4.07;1.77;;;19.70;99.90;;;;;;4191701;28;20253;-79